Time;durP1;ratioP1;P1;durP2;ratioP2;P2;SDS_P1;SDS_P2;PMS_P1;PMS_P2;Temp;Humidity;BMP_temperature;BMP_pressure;BME280_temperature;BME280_humidity;BME280_pressure;Samples;Min_cycle;Max_cycle;Signal;HPM_P1;HPM_P2
2021/12/20 00:01:51;;;;;;;11.85;6.58;;;;;;;0.91;86.54;97776.61;1758807;81;21019;-57
2021/12/20 00:04:18;;;;;;;12.33;6.10;;;;;;;0.92;86.71;97778.23;1758566;81;20979;-57
2021/12/20 00:06:45;;;;;;;14.78;6.25;;;;;;;0.87;86.80;97778.62;1758653;81;21996;-57
2021/12/20 00:09:12;;;;;;;12.15;7.25;;;;;;;0.86;87.16;97784.48;1758477;81;21082;-57
2021/12/20 00:11:39;;;;;;;12.03;6.20;;;;;;;0.81;86.80;97777.14;1758731;81;20996;-57
2021/12/20 00:14:06;;;;;;;15.63;6.97;;;;;;;0.83;87.43;97779.05;1738875;81;21532;-57
2021/12/20 00:16:33;;;;;;;12.63;6.95;;;;;;;0.80;87.73;97782.18;1746939;80;20949;-57
2021/12/20 00:18:59;;;;;;;12.68;5.97;;;;;;;0.74;87.29;97787.58;1771971;80;21385;-57
2021/12/20 00:21:26;;;;;;;12.23;6.15;;;;;;;0.76;87.38;97789.50;1775191;80;20957;-57
2021/12/20 00:23:54;;;;;;;15.50;6.28;;;;;;;0.77;87.77;97790.64;1768133;80;33512;-57
2021/12/20 00:26:21;;;;;;;13.03;5.92;;;;;;;0.78;87.20;97793.59;1737541;82;22111;-57
2021/12/20 00:28:48;;;;;;;13.60;6.78;;;;;;;0.69;86.55;97783.45;1737619;82;21044;-57
2021/12/20 00:31:15;;;;;;;9.78;5.70;;;;;;;0.72;87.13;97786.48;1740052;82;21362;-57
2021/12/20 00:33:42;;;;;;;10.10;6.42;;;;;;;0.68;87.15;97798.61;1739779;82;20988;-57
2021/12/20 00:36:09;;;;;;;14.25;5.62;;;;;;;0.68;87.43;97803.12;1739581;82;21012;-57
2021/12/20 00:41:22;;;;;;;12.15;5.62;;;;;;;0.64;87.52;97791.29;1739686;82;21001;-57
2021/12/20 00:43:49;;;;;;;12.00;5.50;;;;;;;0.61;87.39;97797.89;1740379;82;21409;-57
2021/12/20 00:46:16;;;;;;;9.28;4.85;;;;;;;0.64;87.42;97798.77;1739955;82;20985;-57
2021/12/20 00:48:43;;;;;;;11.50;4.62;;;;;;;0.65;87.40;97793.73;1739851;81;21460;-56
2021/12/20 00:51:10;;;;;;;11.53;6.20;;;;;;;0.60;86.82;97801.59;1739701;82;21012;-57
2021/12/20 00:53:36;;;;;;;10.60;4.90;;;;;;;0.63;87.17;97801.66;1739866;82;21020;-57
2021/12/20 00:56:04;;;;;;;12.82;5.03;;;;;;;0.51;86.43;97807.73;1739494;82;21281;-57
2021/12/20 00:58:31;;;;;;;7.53;4.97;;;;;;;0.52;86.07;97813.88;1739745;82;21021;-57
2021/12/20 01:00:58;;;;;;;11.43;4.80;;;;;;;0.54;85.55;97809.14;1739525;82;21544;-57
2021/12/20 01:03:26;;;;;;;13.45;5.83;;;;;;;0.51;85.55;97809.07;1739837;82;21036;-57
2021/12/20 01:05:53;;;;;;;11.55;5.37;;;;;;;0.57;85.96;97814.02;1739745;82;21563;-57
2021/12/20 01:08:21;;;;;;;11.38;5.10;;;;;;;0.55;86.09;97807.58;1739957;82;21380;-57
2021/12/20 01:10:53;;;;;;;10.45;5.22;;;;;;;0.58;86.37;97815.64;1739662;82;21528;-57
2021/12/20 01:13:22;;;;;;;9.83;5.55;;;;;;;0.59;86.64;97809.79;1739882;82;21041;-57
2021/12/20 01:15:52;;;;;;;13.75;6.20;;;;;;;0.53;86.45;97812.84;1739615;82;21004;-57
2021/12/20 01:18:19;;;;;;;9.63;5.30;;;;;;;0.48;85.90;97809.48;1739222;82;21362;-57
2021/12/20 01:20:46;;;;;;;53.98;19.55;;;;;;;0.49;86.33;97829.78;1752551;81;21264;-57
2021/12/20 01:23:13;;;;;;;11.10;5.37;;;;;;;0.43;85.24;97828.02;1744495;81;20989;-57
2021/12/20 01:25:41;;;;;;;10.00;4.90;;;;;;;0.45;86.08;97819.27;1739368;82;21012;-57
2021/12/20 01:28:08;;;;;;;14.38;6.33;;;;;;;0.45;85.92;97808.61;1739561;82;21474;-57
2021/12/20 01:30:35;;;;;;;7.92;5.30;;;;;;;0.42;86.15;97813.02;1739358;82;21057;-57
2021/12/20 01:33:02;;;;;;;39.83;16.07;;;;;;;0.44;86.41;97807.50;1739445;82;21323;-57
2021/12/20 01:35:29;;;;;;;38.95;14.75;;;;;;;0.42;86.59;97810.88;1763754;80;20987;-57
2021/12/20 01:37:56;;;;;;;18.00;8.75;;;;;;;0.46;86.72;97813.42;1764098;80;21548;-57
2021/12/20 01:40:23;;;;;;;12.30;5.90;;;;;;;0.46;86.37;97819.56;1739385;82;21005;-57
2021/12/20 01:42:55;;;;;;;16.82;7.40;;;;;;;0.48;86.33;97816.67;1739900;82;21080;-57
2021/12/20 01:45:23;;;;;;;15.53;7.67;;;;;;;0.47;86.14;97813.19;1739675;82;21005;-57
2021/12/20 01:48:01;;;;;;;9.50;4.78;;;;;;;0.52;86.48;97808.55;1739858;82;21076;-57
2021/12/20 01:50:40;;;;;;;6.05;4.12;;;;;;;0.53;85.80;97794.18;1738398;82;20965;-57
2021/12/20 01:52:49;;;;;;;11.53;5.47;;;;;;;0.55;85.56;97792.91;1736144;82;22381;-57
2021/12/20 01:55:19;;;;;;;8.93;5.05;;;;;;;0.53;82.38;97798.18;1739624;82;20992;-57
2021/12/20 01:57:47;;;;;;;7.58;4.37;;;;;;;0.56;83.07;97806.53;1739892;82;21330;-57
2021/12/20 02:00:23;;;;;;;6.80;2.62;;;;;;;0.58;82.46;97804.17;1739544;82;21001;-57
2021/12/20 02:02:56;;;;;;;9.70;2.65;;;;;;;0.59;81.97;97793.80;1739909;82;21456;-57
2021/12/20 02:05:28;;;;;;;;;;;;;;;0.59;80.94;97801.80;1741639;82;21036;-57
2021/12/20 02:08:03;;;;;;;6.40;2.72;;;;;;;0.54;78.81;97799.80;1739713;82;20410;-57
2021/12/20 02:10:19;;;;;;;6.80;3.08;;;;;;;0.60;80.95;97794.09;1737341;81;21761;-57
2021/12/20 02:12:46;;;;;;;5.47;2.42;;;;;;;0.62;82.30;97797.38;1739870;81;20978;-57
2021/12/20 02:15:13;;;;;;;14.63;6.17;;;;;;;0.61;79.32;97796.56;1720137;82;21414;-57
2021/12/20 02:17:40;;;;;;;9.43;2.77;;;;;;;0.56;77.06;97819.06;1747188;81;20965;-57
2021/12/20 02:20:09;;;;;;;6.53;2.25;;;;;;;0.62;79.74;97809.38;1739647;80;21012;-57
2021/12/20 02:22:38;;;;;;;9.33;2.33;;;;;;;0.64;81.07;97799.29;1714784;82;21986;-57
2021/12/20 02:25:06;;;;;;;4.70;2.27;;;;;;;0.67;81.39;97802.84;1752549;81;26837;-57
2021/12/20 02:27:33;;;;;;;9.68;3.75;;;;;;;0.68;81.83;97802.61;1752712;81;21440;-57
2021/12/20 02:30:13;;;;;;;9.00;4.47;;;;;;;0.69;82.06;97806.94;1747299;82;21007;-57
2021/12/20 02:38:32;;;;;;;14.87;6.30;;;;;;;0.60;83.31;97816.75;1747067;81;20961;-57
2021/12/20 02:41:10;;;;;;;8.88;4.92;;;;;;;0.53;83.66;97814.98;1742785;82;20980;-57
2021/12/20 02:43:41;;;;;;;9.75;5.30;;;;;;;0.50;84.24;97820.74;1737504;82;20985;-57
2021/12/20 02:46:43;;;;;;;14.30;6.97;;;;;;;0.44;84.52;97821.64;1746147;81;21484;-57
2021/12/20 02:48:55;;;;;;;11.18;5.85;;;;;;;0.47;84.58;97823.86;1727185;81;21280;-57
2021/12/20 02:51:26;;;;;;;13.05;5.72;;;;;;;0.47;84.55;97829.19;1758167;81;21043;-57
2021/12/20 02:53:57;;;;;;;11.43;5.78;;;;;;;0.47;84.67;97824.38;1746221;80;21057;-57
2021/12/20 02:56:24;;;;;;;10.78;5.45;;;;;;;0.37;84.84;97826.73;1737283;82;21937;-57
2021/12/20 02:58:52;;;;;;;11.18;5.22;;;;;;;0.43;84.90;97828.53;1737412;82;21463;-57
2021/12/20 03:01:19;;;;;;;10.30;5.55;;;;;;;0.42;85.23;97837.02;1737372;80;21453;-57
2021/12/20 03:03:47;;;;;;;11.55;5.22;;;;;;;0.37;85.34;97833.40;1737479;82;21469;-57
2021/12/20 03:06:26;;;;;;;8.45;5.85;;;;;;;0.36;84.76;97835.25;1737449;81;20981;-57
2021/12/20 03:08:55;;;;;;;12.05;4.22;;;;;;;0.41;85.03;97833.25;1737650;82;20984;-57
2021/12/20 03:11:25;;;;;;;9.43;4.50;;;;;;;0.38;84.59;97835.03;1737475;80;21008;-57
2021/12/20 03:13:56;;;;;;;13.08;4.80;;;;;;;0.35;84.52;97843.47;1737506;81;21031;-57
2021/12/20 03:16:22;;;;;;;11.85;4.50;;;;;;;0.36;84.71;97826.44;1728461;81;21432;-57
2021/12/20 03:18:48;;;;;;;9.75;3.92;;;;;;;0.40;84.79;97830.28;1737528;82;21021;-57
2021/12/20 03:21:15;;;;;;;6.12;4.00;;;;;;;0.39;84.64;97832.14;1737537;82;21008;-57
2021/12/20 03:23:42;;;;;;;7.15;3.87;;;;;;;0.39;84.53;97821.47;1737709;82;21016;-57
2021/12/20 03:26:09;;;;;;;10.03;4.85;;;;;;;0.39;84.61;97829.47;1737285;80;21410;-57
2021/12/20 03:28:36;;;;;;;6.83;4.10;;;;;;;0.39;84.31;97832.14;1737443;82;21001;-57
2021/12/20 03:31:03;;;;;;;11.28;3.77;;;;;;;0.39;84.39;97832.14;1737334;82;21055;-57
2021/12/20 03:33:30;;;;;;;8.33;4.10;;;;;;;0.37;84.62;97836.87;1737361;82;21009;-57
2021/12/20 03:35:57;;;;;;;7.80;3.58;;;;;;;0.34;84.55;97842.63;1737249;82;21075;-57
2021/12/20 03:38:24;;;;;;;7.95;4.65;;;;;;;0.36;85.03;97842.44;1737517;82;22075;-57
2021/12/20 03:40:51;;;;;;;9.88;5.10;;;;;;;0.35;84.92;97830.95;1737251;82;21393;-57
2021/12/20 03:43:18;;;;;;;8.13;4.78;;;;;;;0.36;84.96;97843.25;1744598;81;21431;-57
2021/12/20 03:45:49;;;;;;;10.80;4.28;;;;;;;0.36;84.77;97839.25;1758361;80;20980;-57
2021/12/20 03:48:14;;;;;;;8.78;4.90;;;;;;;0.36;84.61;97835.77;1750314;80;26583;-57
2021/12/20 03:50:41;;;;;;;10.93;4.83;;;;;;;0.33;84.27;97833.52;1737150;82;21472;-57
2021/12/20 03:53:09;;;;;;;9.23;4.03;;;;;;;0.32;84.41;97842.03;1737576;82;21060;-57
2021/12/20 03:55:36;;;;;;;7.03;5.15;;;;;;;0.26;84.23;97851.73;1737323;81;21016;-57
2021/12/20 03:58:03;;;;;;;6.37;4.10;;;;;;;0.28;84.39;97841.67;1737600;82;21067;-57
2021/12/20 04:00:30;;;;;;;6.60;4.30;;;;;;;0.22;84.19;97839.05;1737268;82;21025;-57
2021/12/20 04:02:57;;;;;;;8.78;3.87;;;;;;;0.20;84.44;97830.47;1737672;82;21023;-57
2021/12/20 04:05:25;;;;;;;7.15;4.08;;;;;;;0.21;84.53;97838.23;1737198;80;21396;-57
2021/12/20 04:07:52;;;;;;;10.88;5.17;;;;;;;0.22;83.82;97827.06;1737230;82;21406;-57
2021/12/20 04:10:19;;;;;;;7.28;4.15;;;;;;;0.25;84.35;97838.61;1737414;81;21401;-57
2021/12/20 04:12:46;;;;;;;6.40;4.12;;;;;;;0.29;84.37;97827.83;1737325;82;21457;-57
2021/12/20 04:15:12;;;;;;;6.12;3.22;;;;;;;0.30;84.06;97834.78;1717794;80;21475;-57
2021/12/20 04:17:39;;;;;;;6.42;3.65;;;;;;;0.32;83.88;97832.70;1737436;82;21026;-57
2021/12/20 04:20:08;;;;;;;7.55;3.37;;;;;;;0.34;83.83;97829.81;1737416;82;21429;-57
2021/12/20 04:22:35;;;;;;;11.85;4.30;;;;;;;0.36;83.59;97830.44;1737526;82;22060;-57
2021/12/20 04:25:03;;;;;;;9.73;3.83;;;;;;;0.38;83.98;97829.70;1737299;81;20985;-57
2021/12/20 04:27:30;;;;;;;6.50;3.50;;;;;;;0.38;84.00;97827.03;1737607;82;21512;-57
2021/12/20 04:29:57;;;;;;;10.05;3.42;;;;;;;0.39;83.71;97827.33;1737286;82;21016;-57
2021/12/20 04:32:24;;;;;;;7.05;3.58;;;;;;;0.40;83.89;97832.95;1737524;82;21000;-57
2021/12/20 04:34:50;;;;;;;6.65;3.40;;;;;;;0.38;83.08;97817.18;1737429;82;20969;-57
2021/12/20 04:37:17;;;;;;;11.25;4.05;;;;;;;0.40;83.50;97823.09;1737452;82;21004;-57
2021/12/20 04:39:44;;;;;;;6.72;5.00;;;;;;;0.42;83.14;97825.02;1755233;81;21428;-57
2021/12/20 04:42:11;;;;;;;6.65;3.37;;;;;;;0.38;82.95;97816.37;1758233;81;20992;-57
2021/12/20 04:44:39;;;;;;;6.62;4.40;;;;;;;0.27;82.10;97826.72;1739505;80;21430;-57
2021/12/20 04:47:06;;;;;;;9.50;4.20;;;;;;;0.27;82.15;97836.56;1737327;82;21488;-57
2021/12/20 04:49:33;;;;;;;8.53;3.75;;;;;;;0.29;82.83;97826.49;1737505;82;21075;-57
2021/12/20 04:52:00;;;;;;;13.72;5.08;;;;;;;0.32;82.95;97815.91;1737290;82;22050;-57
2021/12/20 04:54:26;;;;;;;11.28;6.10;;;;;;;0.33;82.82;97821.53;1737346;82;21428;-57
2021/12/20 04:56:53;;;;;;;18.02;7.92;;;;;;;0.35;82.53;97837.63;1752746;81;21082;-57
2021/12/20 04:59:20;;;;;;;12.50;4.80;;;;;;;0.36;82.36;97842.44;1758409;81;21009;-57
2021/12/20 05:01:47;;;;;;;14.90;5.87;;;;;;;0.38;81.96;97831.03;1743980;81;21024;-57
2021/12/20 05:04:14;;;;;;;36.25;17.00;;;;;;;0.39;81.77;97833.47;1754107;81;22001;-57
2021/12/20 05:06:41;;;;;;;20.65;10.78;;;;;;;0.39;81.14;97832.14;1744700;80;21417;-57
2021/12/20 05:09:08;;;;;;;25.10;12.73;;;;;;;0.42;81.85;97843.69;1738769;81;21080;-57
2021/12/20 05:11:35;;;;;;;11.35;6.80;;;;;;;0.38;81.54;97845.17;1749924;81;21008;-57
2021/12/20 05:14:02;;;;;;;15.35;7.40;;;;;;;0.36;80.96;97846.44;1755297;81;21035;-57
2021/12/20 05:16:29;;;;;;;8.50;3.83;;;;;;;0.37;81.02;97841.39;1738085;82;21426;-57
2021/12/20 05:18:56;;;;;;;6.05;3.92;;;;;;;0.38;81.18;97849.69;1755139;81;20948;-57
2021/12/20 05:21:23;;;;;;;9.28;4.05;;;;;;;0.38;80.70;97847.84;1747591;80;21020;-56
2021/12/20 05:23:52;;;;;;;6.17;3.20;;;;;;;0.38;80.76;97853.17;1737532;82;20986;-57
2021/12/20 05:26:19;;;;;;;7.62;3.55;;;;;;;0.36;79.93;97863.76;1737394;81;21067;-57
2021/12/20 05:28:46;;;;;;;5.53;2.65;;;;;;;0.41;79.31;97856.72;1737455;82;21335;-57
2021/12/20 05:31:13;;;;;;;13.05;4.40;;;;;;;0.36;79.95;97863.24;1732848;82;20993;-57
2021/12/20 05:33:40;;;;;;;4.53;3.37;;;;;;;0.33;80.16;97863.66;1747269;81;21292;-57
2021/12/20 05:36:07;;;;;;;5.33;3.37;;;;;;;0.31;80.24;97860.40;1740381;80;20986;-56
2021/12/20 05:38:34;;;;;;;7.03;3.70;;;;;;;0.29;80.60;97855.81;1744400;80;21005;-56
2021/12/20 05:41:01;;;;;;;6.42;3.22;;;;;;;0.24;81.10;97855.12;1735225;82;21433;-57
2021/12/20 05:43:28;;;;;;;5.35;3.15;;;;;;;0.24;81.11;97855.63;1743463;80;21036;-57
2021/12/20 05:45:54;;;;;;;3.77;2.00;;;;;;;0.22;81.17;97848.38;1737245;81;21497;-57
2021/12/20 05:48:22;;;;;;;7.08;3.42;;;;;;;0.26;81.25;97847.74;1737057;82;21453;-57
2021/12/20 05:50:49;;;;;;;6.45;3.00;;;;;;;0.22;81.35;97853.71;1746862;81;21122;-56
2021/12/20 05:53:15;;;;;;;9.85;5.37;;;;;;;0.24;81.50;97863.11;1756952;80;21012;-56
2021/12/20 05:55:42;;;;;;;9.48;4.20;;;;;;;0.23;81.50;97850.02;1753121;80;20988;-57
2021/12/20 05:58:09;;;;;;;10.68;4.05;;;;;;;0.22;81.74;97852.37;1743277;81;21034;-57
2021/12/20 06:00:36;;;;;;;8.08;3.90;;;;;;;0.23;81.82;97849.48;1758249;81;21003;-57
2021/12/20 06:03:03;;;;;;;5.08;3.30;;;;;;;0.22;82.05;97859.86;1751938;80;21575;-56
2021/12/20 06:05:30;;;;;;;8.05;3.77;;;;;;;0.22;82.28;97870.52;1752082;81;21293;-57
2021/12/20 06:07:57;;;;;;;6.30;3.47;;;;;;;0.23;82.30;97874.00;1733547;82;22133;-57
2021/12/20 06:10:24;;;;;;;6.22;3.90;;;;;;;0.19;82.38;97876.30;1719049;81;20993;-56
2021/12/20 06:12:52;;;;;;;7.03;3.40;;;;;;;0.20;82.66;97870.44;1753350;81;21025;-56
2021/12/20 06:15:19;;;;;;;12.03;6.65;;;;;;;0.14;83.04;97875.30;1734278;81;21466;-57
2021/12/20 06:17:45;;;;;;;11.05;5.10;;;;;;;0.17;83.15;97877.03;1744738;81;21346;-56
2021/12/20 06:20:13;;;;;;;7.50;4.70;;;;;;;0.13;83.62;97877.66;1737267;80;21000;-58
2021/12/20 06:22:40;;;;;;;9.30;5.85;;;;;;;0.14;83.60;97883.30;1737355;82;21035;-59
2021/12/20 06:25:08;;;;;;;12.82;5.30;;;;;;;0.17;83.41;97884.18;1738511;81;20988;-59
2021/12/20 06:27:35;;;;;;;14.53;7.90;;;;;;;0.20;83.79;97893.91;1734958;81;20979;-58
2021/12/20 06:30:04;;;;;;;9.30;5.05;;;;;;;0.22;83.44;97899.02;1742903;81;21581;-58
2021/12/20 06:32:31;;;;;;;7.75;3.85;;;;;;;0.14;84.38;97910.75;1729624;81;20990;-58
2021/12/20 06:34:58;;;;;;;7.28;5.03;;;;;;;0.22;83.86;97910.49;1749731;81;21420;-58
2021/12/20 06:37:25;;;;;;;7.58;4.10;;;;;;;0.17;84.81;97914.83;1754002;81;20956;-59
2021/12/20 06:39:52;;;;;;;8.18;4.53;;;;;;;0.15;84.74;97919.56;1743031;80;21457;-59
2021/12/20 06:42:19;;;;;;;8.95;5.12;;;;;;;0.16;84.58;97922.01;1735508;82;21397;-59
2021/12/20 06:44:46;;;;;;;11.45;4.80;;;;;;;0.17;84.82;97914.83;1741062;81;21000;-59
2021/12/20 06:47:13;;;;;;;9.10;4.85;;;;;;;0.19;84.40;97918.93;1732913;80;20993;-59
2021/12/20 06:49:40;;;;;;;7.87;5.42;;;;;;;0.20;84.54;97923.22;1741786;81;21087;-59
2021/12/20 06:52:07;;;;;;;8.35;6.00;;;;;;;0.18;85.00;97931.95;1733090;80;21012;-59
2021/12/20 06:54:34;;;;;;;10.03;5.20;;;;;;;0.19;84.78;97928.78;1737366;81;21411;-59
2021/12/20 06:57:01;;;;;;;9.30;5.62;;;;;;;0.21;84.59;97934.19;1738607;81;21016;-58
2021/12/20 06:59:27;;;;;;;8.83;5.00;;;;;;;0.18;84.97;97929.81;1736029;80;21488;-58
2021/12/20 07:01:54;;;;;;;13.38;6.28;;;;;;;0.20;84.84;97926.41;1752903;81;20967;-58
2021/12/20 07:04:21;;;;;;;11.97;6.30;;;;;;;0.21;84.71;97931.52;1733330;80;21078;-56
2021/12/20 07:06:48;;;;;;;19.35;11.38;;;;;;;0.21;84.94;97933.37;1728331;81;21439;-57
2021/12/20 07:09:15;;;;;;;11.18;6.87;;;;;;;0.22;85.04;97937.66;1737471;80;21017;-56
2021/12/20 07:11:43;;;;;;;12.95;9.23;;;;;;;0.17;85.33;97936.14;1731718;80;21021;-56
2021/12/20 07:14:10;;;;;;;9.88;6.95;;;;;;;0.15;85.48;97925.70;1736870;81;21103;-57
2021/12/20 07:16:40;;;;;;;32.70;18.27;;;;;;;0.15;85.22;97930.22;1736255;81;22449;-57
2021/12/20 07:19:07;;;;;;;18.92;10.10;;;;;;;0.13;85.49;97927.78;1731132;81;22944;-56
2021/12/20 07:21:33;;;;;;;11.73;7.62;;;;;;;0.17;85.22;97933.48;1730205;81;21001;-56
2021/12/20 07:24:00;;;;;;;10.93;6.53;;;;;;;0.12;86.34;97943.98;1729409;80;21091;-57
2021/12/20 07:26:27;;;;;;;8.78;6.15;;;;;;;0.13;86.01;97934.95;1727034;81;21597;-56
2021/12/20 07:28:54;;;;;;;11.35;7.45;;;;;;;0.08;86.51;97946.77;1727528;82;21500;-55
2021/12/20 07:31:21;;;;;;;7.47;6.05;;;;;;;0.12;85.85;97937.33;1729200;81;21673;-57
2021/12/20 07:33:48;;;;;;;9.25;5.97;;;;;;;0.12;85.97;97939.47;1726785;82;21437;-56
2021/12/20 07:36:18;;;;;;;9.85;5.85;;;;;;;0.13;85.59;97944.28;1727715;81;21059;-57
2021/12/20 07:38:44;;;;;;;12.63;5.97;;;;;;;0.16;85.78;97942.52;1733111;81;21536;-56
2021/12/20 07:41:11;;;;;;;9.00;5.65;;;;;;;0.20;85.58;97948.55;1723239;82;21434;-56
2021/12/20 07:43:38;;;;;;;10.58;5.05;;;;;;;0.21;85.48;97949.36;1726006;82;20991;-56
2021/12/20 07:46:05;;;;;;;10.75;6.20;;;;;;;0.24;85.50;97951.58;1731265;81;21465;-56
2021/12/20 07:48:31;;;;;;;12.40;5.92;;;;;;;0.25;85.64;97951.88;1728231;80;21107;-57
2021/12/20 07:50:59;;;;;;;12.85;5.65;;;;;;;0.25;85.60;97954.03;1734674;80;21085;-57
2021/12/20 07:53:27;;;;;;;7.95;5.80;;;;;;;0.26;85.62;97954.88;1728470;81;21045;-57
2021/12/20 07:55:53;;;;;;;10.23;6.25;;;;;;;0.32;85.13;97959.32;1732625;82;21064;-57
2021/12/20 07:58:20;;;;;;;9.73;5.75;;;;;;;0.19;86.17;97954.09;1733664;82;21115;-57
2021/12/20 08:00:47;;;;;;;8.63;5.67;;;;;;;0.22;85.98;97965.13;1720926;82;21045;-55
2021/12/20 08:03:14;;;;;;;8.10;4.95;;;;;;;0.20;86.23;97964.53;1759136;80;21032;-56
2021/12/20 08:05:41;;;;;;;8.30;5.05;;;;;;;0.24;85.98;97961.73;1760535;80;21525;-57
2021/12/20 08:08:08;;;;;;;9.10;5.65;;;;;;;0.28;85.79;97954.95;1727747;81;21209;-56
2021/12/20 08:10:35;;;;;;;7.22;5.12;;;;;;;0.26;85.73;97951.69;1718994;82;20993;-57
2021/12/20 08:13:02;;;;;;;8.50;4.65;;;;;;;0.32;85.94;97953.98;1728716;81;21020;-57
2021/12/20 08:15:29;;;;;;;9.50;5.25;;;;;;;0.31;86.11;97948.88;1735262;82;21095;-57
2021/12/20 08:17:56;;;;;;;12.15;5.58;;;;;;;0.27;86.33;97957.31;1725996;80;21737;-57
2021/12/20 08:20:23;;;;;;;7.55;4.17;;;;;;;0.29;86.38;97962.42;1720091;82;21551;-56
2021/12/20 08:22:50;;;;;;;15.40;5.85;;;;;;;0.25;85.92;97963.88;1733879;81;21399;-57
2021/12/20 08:25:18;;;;;;;14.83;7.72;;;;;;;0.27;86.25;97967.98;1737740;81;21008;-56
2021/12/20 08:27:46;;;;;;;21.53;11.30;;;;;;;0.31;85.91;97968.36;1757067;79;21036;-57
2021/12/20 08:30:13;;;;;;;13.32;7.60;;;;;;;0.34;85.75;97971.91;1741869;81;21137;-57
2021/12/20 08:32:40;;;;;;;9.43;5.47;;;;;;;0.36;85.65;97970.39;1763976;80;21040;-57
2021/12/20 08:35:07;;;;;;;14.38;7.83;;;;;;;0.39;85.54;97976.61;1748022;79;20985;-55
2021/12/20 08:37:34;;;;;;;18.07;9.20;;;;;;;0.43;85.22;97977.83;1762595;80;21012;-56
2021/12/20 08:40:03;;;;;;;10.48;6.30;;;;;;;0.49;85.32;97990.27;1771496;79;21123;-56
2021/12/20 08:42:30;;;;;;;8.35;6.10;;;;;;;0.45;84.64;97998.42;1762810;80;26779;-57
2021/12/20 08:44:57;;;;;;;8.00;4.25;;;;;;;0.41;84.38;97995.34;1719779;82;21450;-57
2021/12/20 08:47:24;;;;;;;11.73;5.03;;;;;;;0.50;84.70;98002.05;1730656;82;21164;-56
2021/12/20 08:49:50;;;;;;;14.87;8.15;;;;;;;0.46;84.45;97996.05;1752567;80;21068;-57
2021/12/20 08:52:17;;;;;;;11.63;7.72;;;;;;;0.52;84.40;98004.02;1741148;81;21145;-57
2021/12/20 08:54:44;;;;;;;9.43;4.83;;;;;;;0.55;84.45;98007.57;1736272;82;20985;-57
2021/12/20 08:57:11;;;;;;;13.00;6.05;;;;;;;0.54;84.07;98009.13;1753576;80;21697;-57
2021/12/20 08:59:38;;;;;;;8.90;4.58;;;;;;;0.54;83.86;98003.27;1768890;80;21009;-57
2021/12/20 09:02:07;;;;;;;10.60;5.72;;;;;;;0.46;83.15;98004.86;1763151;80;21021;-56
2021/12/20 09:04:34;;;;;;;;;;;;;;;0.53;84.04;98004.31;1740109;81;20996;-56
2021/12/20 09:07:01;;;;;;;7.50;4.90;;;;;;;0.59;83.81;98000.45;1740064;80;20480;-56
2021/12/20 09:09:29;;;;;;;9.25;4.75;;;;;;;0.61;83.42;98002.42;1740892;81;21131;-57
2021/12/20 09:11:56;;;;;;;8.75;4.40;;;;;;;0.65;83.65;98002.27;1733528;81;21125;-57
2021/12/20 09:14:23;;;;;;;7.58;4.95;;;;;;;0.70;83.16;98003.27;1738480;81;21052;-57
2021/12/20 09:16:49;;;;;;;7.28;4.45;;;;;;;0.72;83.09;98006.53;1746171;81;21032;-56
2021/12/20 09:19:16;;;;;;;8.68;4.92;;;;;;;0.70;81.86;98010.45;1736195;81;21077;-57
2021/12/20 09:21:43;;;;;;;13.05;7.50;;;;;;;0.72;82.41;98001.70;1736012;81;21008;-57
2021/12/20 09:24:10;;;;;;;15.23;8.68;;;;;;;0.72;81.61;97995.86;1742227;81;22108;-57
2021/12/20 09:26:38;;;;;;;10.58;5.30;;;;;;;0.75;82.50;97990.08;1708259;82;21461;-57
2021/12/20 09:29:05;;;;;;;11.68;5.90;;;;;;;0.77;82.70;97992.03;1731238;81;21023;-57
2021/12/20 09:31:32;;;;;;;32.70;19.35;;;;;;;0.80;82.44;97992.92;1721248;81;21072;-57
2021/12/20 09:33:58;;;;;;;10.63;6.17;;;;;;;0.81;82.35;97993.22;1757435;80;21083;-56
2021/12/20 09:36:29;;;;;;;10.30;6.42;;;;;;;0.82;82.12;97990.84;1758887;81;21456;-56
2021/12/20 09:38:57;;;;;;;8.05;4.35;;;;;;;0.82;82.26;97996.18;1707241;82;21213;-57
2021/12/20 09:43:59;;;;;;;9.60;5.15;;;;;;;0.86;82.27;97994.43;1699192;81;21039;-57
2021/12/20 09:46:26;;;;;;;9.90;5.85;;;;;;;0.83;82.21;97996.48;1730558;81;21669;-57
2021/12/20 09:48:53;;;;;;;10.35;5.47;;;;;;;0.83;82.15;98001.00;1690708;82;21489;-57
2021/12/20 09:51:20;;;;;;;11.08;5.50;;;;;;;0.80;82.12;98000.92;1738460;81;21037;-56
2021/12/20 09:53:47;;;;;;;8.05;5.10;;;;;;;0.78;82.27;97996.85;1733810;81;21028;-56
2021/12/20 09:56:14;;;;;;;14.55;7.33;;;;;;;0.77;82.47;98000.52;1722628;81;21097;-57
2021/12/20 09:58:41;;;;;;;10.38;5.20;;;;;;;0.73;82.37;97995.34;1735665;80;21425;-57
2021/12/20 10:01:12;;;;;;;14.53;5.95;;;;;;;0.75;82.70;97995.93;1740165;81;21079;-57
2021/12/20 10:03:39;;;;;;;9.20;5.72;;;;;;;0.73;82.63;97996.16;1737298;81;21040;-56
2021/12/20 10:06:06;;;;;;;10.53;5.80;;;;;;;0.65;82.72;97991.60;1737101;81;21024;-56
2021/12/20 10:08:35;;;;;;;19.30;6.25;;;;;;;0.67;82.80;97993.53;1745340;80;21012;-57
2021/12/20 10:11:09;;;;;;;12.65;8.53;;;;;;;0.64;82.92;97997.45;1749817;80;21547;-57
2021/12/20 10:13:37;;;;;;;15.88;8.65;;;;;;;0.56;83.89;98004.38;1733423;81;21651;-56
2021/12/20 10:16:17;;;;;;;12.10;7.40;;;;;;;0.60;83.65;97996.76;1740014;79;22220;-56
2021/12/20 10:18:44;;;;;;;11.70;7.47;;;;;;;0.52;84.12;98009.34;1752931;79;21038;-56
2021/12/20 10:21:11;;;;;;;9.78;6.17;;;;;;;0.46;84.35;98000.86;1752289;81;22118;-56
2021/12/20 10:23:42;;;;;;;11.18;6.00;;;;;;;0.45;84.29;98017.08;1746772;81;21100;-57
2021/12/20 10:26:19;;;;;;;14.05;8.55;;;;;;;0.43;84.45;98014.64;1744614;81;20972;-56
2021/12/20 10:28:52;;;;;;;11.55;6.83;;;;;;;0.39;84.83;98016.08;1751901;81;21059;-56
2021/12/20 10:31:21;;;;;;;15.68;7.30;;;;;;;0.43;84.44;98023.16;1745610;79;21523;-57
2021/12/20 10:33:57;;;;;;;14.50;8.53;;;;;;;0.43;84.58;98008.48;1735756;80;21111;-56
2021/12/20 10:36:24;;;;;;;13.85;7.08;;;;;;;0.37;85.54;98014.16;1743412;79;22356;-57
2021/12/20 10:38:59;;;;;;;13.68;6.97;;;;;;;0.35;85.58;98014.89;1750020;79;21021;-56
2021/12/20 10:41:39;;;;;;;10.90;6.12;;;;;;;0.29;85.98;98018.41;1756557;81;21076;-56
2021/12/20 10:44:01;;;;;;;9.75;5.85;;;;;;;0.27;86.20;98018.63;1743359;79;21040;-57
2021/12/20 10:46:29;;;;;;;9.18;5.40;;;;;;;0.27;85.77;98022.62;1742693;80;21056;-57
2021/12/20 10:49:03;;;;;;;8.43;6.00;;;;;;;0.26;85.67;98016.17;1747086;80;21036;-56
2021/12/20 10:51:39;;;;;;;12.78;5.85;;;;;;;0.21;85.04;98012.80;1743886;81;21079;-57
2021/12/20 10:54:15;;;;;;;15.88;8.18;;;;;;;0.25;85.44;98019.33;1752429;80;21099;-57
2021/12/20 10:56:41;;;;;;;7.50;5.55;;;;;;;0.28;85.33;98020.25;1744675;79;21056;-57
2021/12/20 10:59:10;;;;;;;10.65;6.75;;;;;;;0.25;85.15;98017.17;1738351;81;21520;-56
2021/12/20 11:04:16;;;;;;;11.97;6.75;;;;;;;0.28;84.52;98013.59;1746139;81;20227;-57
2021/12/20 11:09:15;;;;;;;10.68;6.15;;;;;;;0.39;84.93;98013.94;1738831;80;21478;-57
2021/12/20 11:11:51;;;;;;;12.88;7.12;;;;;;;0.45;84.64;98015.23;1740282;81;21083;-56
2021/12/20 11:14:21;;;;;;;15.18;7.85;;;;;;;0.47;84.68;98020.34;1742286;80;22148;-57
2021/12/20 11:16:51;;;;;;;12.93;7.65;;;;;;;0.50;84.52;98016.72;1744421;81;21055;-57
2021/12/20 11:19:34;;;;;;;11.00;6.45;;;;;;;0.49;84.74;98019.09;1748008;80;21040;-57
2021/12/20 11:22:09;;;;;;;14.43;8.85;;;;;;;0.46;85.04;98020.86;1740074;81;20997;-58
2021/12/20 11:24:52;;;;;;;14.73;6.90;;;;;;;0.47;85.66;98025.67;1752926;81;21651;-59
2021/12/20 11:27:22;;;;;;;11.65;7.30;;;;;;;0.47;85.71;98021.16;1749420;81;21871;-58
2021/12/20 11:29:53;;;;;;;9.05;6.28;;;;;;;0.43;85.85;98021.30;1744995;79;21072;-59
2021/12/20 11:32:21;;;;;;;10.05;6.35;;;;;;;0.45;85.89;98023.23;1743870;80;21016;-57
2021/12/20 11:34:48;;;;;;;10.45;6.87;;;;;;;0.49;85.68;98015.61;1756247;80;21044;-57
2021/12/20 11:37:18;;;;;;;11.65;6.40;;;;;;;0.51;85.79;98018.38;1742934;81;21088;-56
2021/12/20 11:39:45;;;;;;;11.10;6.10;;;;;;;0.53;85.99;98020.83;1754118;79;20993;-57
2021/12/20 11:42:13;;;;;;;12.58;6.17;;;;;;;0.37;87.54;98020.00;1751442;79;21025;-57
2021/12/20 11:44:42;;;;;;;14.70;8.08;;;;;;;0.38;87.08;98017.63;1741517;80;20989;-57
2021/12/20 11:47:32;;;;;;;12.75;7.35;;;;;;;0.35;86.94;98022.07;1748875;81;21011;-57
2021/12/20 11:50:05;;;;;;;12.28;6.58;;;;;;;0.31;87.28;98017.66;1753861;79;21013;-56
2021/12/20 11:52:35;;;;;;;14.05;6.08;;;;;;;0.26;87.63;98024.17;1752667;81;21501;-56
2021/12/20 11:55:31;;;;;;;8.05;5.22;;;;;;;0.15;88.26;98021.64;1743971;81;21079;-57
2021/12/20 11:58:00;;;;;;;11.40;5.08;;;;;;;0.19;88.47;98024.72;1747806;80;21409;-57